Time;durP1;ratioP1;P1;durP2;ratioP2;P2;SDS_P1;SDS_P2;PMS_P1;PMS_P2;Temp;Humidity;BMP_temperature;BMP_pressure;BME280_temperature;BME280_humidity;BME280_pressure;Samples;Min_cycle;Max_cycle;Signal;HPM_P1;HPM_P2
2022/05/27 00:01:28;;;;;;;6.13;2.53;;;13.40;99.90;;;;;;4994310;28;20098;-71
2022/05/27 00:03:56;;;;;;;7.57;2.80;;;13.40;99.90;;;;;;4986983;28;20482;-75
2022/05/27 00:06:22;;;;;;;5.55;2.50;;;13.40;99.90;;;;;;5016878;28;20065;-71
2022/05/27 00:08:48;;;;;;;4.13;2.42;;;13.40;99.90;;;;;;5014401;28;20077;-72
2022/05/27 00:11:14;;;;;;;3.75;2.53;;;13.30;99.90;;;;;;5016283;28;20046;-71
2022/05/27 00:13:41;;;;;;;5.82;2.55;;;13.30;99.90;;;;;;5015472;28;20084;-72
2022/05/27 00:16:08;;;;;;;5.30;2.55;;;13.30;99.90;;;;;;4989711;28;20065;-76
2022/05/27 00:18:34;;;;;;;6.00;2.40;;;13.30;99.90;;;;;;5014323;28;20084;-75
2022/05/27 00:21:02;;;;;;;7.78;2.70;;;13.30;99.90;;;;;;4999264;28;20074;-72
2022/05/27 00:23:28;;;;;;;5.03;2.38;;;13.30;99.90;;;;;;5016918;28;20051;-74
2022/05/27 00:25:53;;;;;;;6.75;2.80;;;13.30;99.90;;;;;;5000420;28;20058;-74
2022/05/27 00:28:19;;;;;;;5.40;2.65;;;13.30;99.90;;;;;;4956767;28;20050;-73
2022/05/27 00:30:45;;;;;;;5.55;2.60;;;13.30;99.90;;;;;;5000191;28;20043;-73
2022/05/27 00:33:11;;;;;;;4.82;2.60;;;13.30;99.90;;;;;;4990085;28;20043;-74
2022/05/27 00:35:38;;;;;;;5.85;2.40;;;13.20;99.90;;;;;;5014544;28;20054;-73
2022/05/27 00:38:04;;;;;;;5.88;2.78;;;13.20;99.90;;;;;;5016224;28;20077;-74
2022/05/27 00:40:39;;;;;;;3.83;2.25;;;13.10;99.90;;;;;;5000005;28;20050;-69
2022/05/27 00:43:06;;;;;;;5.75;2.25;;;13.10;99.90;;;;;;4989717;28;20054;-74
2022/05/27 00:45:34;;;;;;;4.22;2.28;;;13.10;99.90;;;;;;4997343;28;20058;-73
2022/05/27 00:48:03;;;;;;;4.45;2.28;;;13.10;99.90;;;;;;4997955;28;20058;-74
2022/05/27 00:50:36;;;;;;;5.32;2.40;;;13.10;99.90;;;;;;5016214;28;20054;-74
2022/05/27 00:53:04;;;;;;;6.00;2.35;;;13.10;99.90;;;;;;5000502;28;20081;-73
2022/05/27 00:55:34;;;;;;;5.07;1.95;;;13.00;99.90;;;;;;5016588;28;20581;-74
2022/05/27 00:58:18;;;;;;;3.88;2.00;;;13.00;99.90;;;;;;5016666;28;20046;-74
2022/05/27 01:00:44;;;;;;;6.05;2.28;;;13.10;99.90;;;;;;4999623;28;20057;-74
2022/05/27 01:03:13;;;;;;;6.50;2.63;;;13.00;99.90;;;;;;5001677;28;20050;-74
2022/05/27 01:05:41;;;;;;;5.88;2.35;;;13.00;99.90;;;;;;5016006;28;20058;-73
2022/05/27 01:08:08;;;;;;;4.78;2.35;;;13.00;99.90;;;;;;4997356;28;20046;-75
2022/05/27 01:10:47;;;;;;;7.05;2.88;;;13.00;99.90;;;;;;5013318;28;20577;-73
2022/05/27 01:13:28;;;;;;;4.13;1.83;;;13.00;99.90;;;;;;5012814;28;20086;-76
2022/05/27 01:16:09;;;;;;;3.92;2.17;;;12.90;99.90;;;;;;4992160;28;20456;-74
2022/05/27 01:22:20;;;;;;;4.72;2.47;;;12.90;99.90;;;;;;4992041;28;20046;-76
2022/05/27 01:25:01;;;;;;;4.90;2.45;;;12.90;99.90;;;;;;4993850;28;20261;-73
2022/05/27 01:27:56;;;;;;;4.80;2.20;;;12.90;99.90;;;;;;5000335;28;20034;-74
2022/05/27 01:30:25;;;;;;;5.90;2.35;;;12.90;99.90;;;;;;4998376;28;20548;-71
2022/05/27 01:33:09;;;;;;;5.15;2.75;;;12.80;99.90;;;;;;4997425;28;20038;-74
2022/05/27 01:35:57;;;;;;;4.88;2.63;;;12.80;99.90;;;;;;4983903;28;20109;-75
2022/05/27 01:38:29;;;;;;;4.65;2.70;;;12.80;99.90;;;;;;4999263;28;20050;-77
2022/05/27 01:41:28;;;;;;;5.30;2.35;;;12.80;99.90;;;;;;5012583;28;20097;-72
2022/05/27 01:44:05;;;;;;;5.38;2.55;;;12.80;99.90;;;;;;4981311;28;20065;-73
2022/05/27 01:46:30;;;;;;;5.18;2.78;;;12.70;99.90;;;;;;5015672;28;20042;-73
2022/05/27 01:49:20;;;;;;;7.60;2.70;;;12.70;99.90;;;;;;5013812;28;20093;-74
2022/05/27 01:51:48;;;;;;;7.35;2.88;;;12.70;99.90;;;;;;5011536;28;20060;-73
2022/05/27 01:54:35;;;;;;;5.72;3.13;;;12.60;99.90;;;;;;4990374;28;20042;-74
2022/05/27 01:57:16;;;;;;;6.28;3.35;;;12.60;99.90;;;;;;5015231;28;20090;-73
2022/05/27 01:59:53;;;;;;;5.13;2.60;;;12.60;99.90;;;;;;5015386;28;20121;-73
2022/05/27 02:02:23;;;;;;;6.72;2.65;;;12.50;99.90;;;;;;4983249;28;20047;-74
2022/05/27 02:04:55;;;;;;;6.97;2.78;;;12.50;99.90;;;;;;4998904;28;20494;-73
2022/05/27 02:07:45;;;;;;;5.32;2.55;;;12.50;99.90;;;;;;5014879;28;20054;-73
2022/05/27 02:10:24;;;;;;;5.32;2.65;;;12.40;99.90;;;;;;5014848;28;20442;-71
2022/05/27 02:12:58;;;;;;;4.97;2.67;;;12.40;99.90;;;;;;5014308;28;20085;-73
2022/05/27 02:15:31;;;;;;;6.10;2.83;;;12.30;99.90;;;;;;5000719;28;20066;-71
2022/05/27 02:18:19;;;;;;;7.28;2.67;;;12.30;99.90;;;;;;4999206;28;20062;-72
2022/05/27 02:20:52;;;;;;;6.68;2.90;;;12.20;99.90;;;;;;4998567;28;20062;-72
2022/05/27 02:23:58;;;;;;;6.25;2.78;;;12.30;99.90;;;;;;5006901;28;20062;-73
2022/05/27 02:26:27;;;;;;;6.03;2.80;;;12.20;99.90;;;;;;5002635;28;20062;-73
2022/05/27 02:29:01;;;;;;;5.72;2.88;;;12.20;99.90;;;;;;5011771;28;20055;-73
2022/05/27 02:31:32;;;;;;;5.30;2.72;;;12.20;99.90;;;;;;5011476;28;20106;-73
2022/05/27 02:36:55;;;;;;;8.80;3.50;;;12.20;99.90;;;;;;4998219;28;20050;-74
2022/05/27 02:39:21;;;;;;;6.07;3.00;;;12.20;99.90;;;;;;4989910;28;20090;-73
2022/05/27 02:42:16;;;;;;;6.95;2.83;;;12.20;99.90;;;;;;4984608;28;20083;-72
2022/05/27 02:44:47;;;;;;;6.15;3.08;;;12.20;99.90;;;;;;5010955;28;20047;-72
2022/05/27 02:47:25;;;;;;;11.18;3.00;;;12.20;99.90;;;;;;4979911;28;20047;-73
2022/05/27 02:50:06;;;;;;;7.03;2.92;;;12.20;99.90;;;;;;5011469;28;20051;-72
2022/05/27 02:52:40;;;;;;;6.50;2.70;;;12.30;99.90;;;;;;4993241;28;20088;-73
2022/05/27 02:55:24;;;;;;;8.23;2.95;;;12.20;99.90;;;;;;5012734;28;20046;-74
2022/05/27 02:57:52;;;;;;;7.13;2.70;;;12.20;99.90;;;;;;4980507;28;20105;-74
2022/05/27 03:00:26;;;;;;;6.93;2.88;;;12.10;99.90;;;;;;4986841;28;20076;-74
2022/05/27 03:02:53;;;;;;;6.65;3.00;;;12.10;99.90;;;;;;4998487;28;20421;-72
2022/05/27 03:05:23;;;;;;;6.88;2.30;;;12.10;99.90;;;;;;4997971;28;20038;-72
2022/05/27 03:08:07;;;;;;;7.82;2.53;;;12.10;99.90;;;;;;4997583;28;20053;-73
2022/05/27 03:11:08;;;;;;;6.22;2.70;;;12.00;99.90;;;;;;4993961;28;20050;-72
2022/05/27 03:13:52;;;;;;;8.13;3.22;;;12.00;99.90;;;;;;4990348;28;20093;-72
2022/05/27 03:16:34;;;;;;;8.65;2.35;;;12.00;99.90;;;;;;5014075;28;20046;-72
2022/05/27 03:19:08;;;;;;;7.57;2.53;;;12.00;99.90;;;;;;5013935;28;20054;-72
2022/05/27 03:21:55;;;;;;;7.35;3.10;;;12.00;99.90;;;;;;5014368;28;20058;-73
2022/05/27 03:24:55;;;;;;;6.25;2.53;;;12.00;99.90;;;;;;5014500;28;20454;-74
2022/05/27 03:27:39;;;;;;;5.28;2.03;;;11.90;99.90;;;;;;5013799;28;20050;-72
2022/05/27 03:30:22;;;;;;;10.25;2.60;;;11.90;99.90;;;;;;5013985;28;20038;-73
2022/05/27 03:33:13;;;;;;;7.72;2.47;;;11.90;99.90;;;;;;4998169;28;20066;-72
2022/05/27 03:36:07;;;;;;;8.63;2.60;;;11.80;99.90;;;;;;4980319;28;20101;-73
2022/05/27 03:38:37;;;;;;;6.22;2.42;;;11.80;99.90;;;;;;4994439;28;20086;-73
2022/05/27 03:41:28;;;;;;;6.55;2.28;;;11.80;99.90;;;;;;4986340;28;20140;-71
2022/05/27 03:43:54;;;;;;;7.15;2.50;;;11.80;99.90;;;;;;4983242;28;20051;-71
2022/05/27 03:46:35;;;;;;;9.07;2.92;;;11.80;99.90;;;;;;5009338;28;20136;-72
2022/05/27 03:49:02;;;;;;;11.95;2.55;;;11.80;99.90;;;;;;4977660;28;20074;-72
2022/05/27 03:51:32;;;;;;;10.27;2.90;;;11.80;99.90;;;;;;4991486;28;20050;-72
2022/05/27 03:54:04;;;;;;;9.13;2.60;;;11.70;99.90;;;;;;4998963;28;20072;-72
2022/05/27 03:56:38;;;;;;;9.57;2.60;;;11.70;99.90;;;;;;5014121;28;20099;-72
2022/05/27 03:59:06;;;;;;;7.93;2.60;;;11.70;99.90;;;;;;4997355;28;20056;-72
2022/05/27 04:01:33;;;;;;;7.47;2.70;;;11.70;99.90;;;;;;5017149;28;20675;-73
2022/05/27 04:04:00;;;;;;;12.68;3.08;;;11.70;99.90;;;;;;5015103;28;20108;-72
2022/05/27 04:06:27;;;;;;;10.45;3.78;;;11.70;99.90;;;;;;5014093;28;20126;-73
2022/05/27 04:08:57;;;;;;;5.68;2.80;;;11.70;99.90;;;;;;5013547;28;20042;-72
2022/05/27 04:11:27;;;;;;;7.00;2.63;;;11.70;99.90;;;;;;5014659;28;20105;-72
2022/05/27 04:13:53;;;;;;;7.57;3.67;;;11.60;99.90;;;;;;4991453;28;20050;-72
2022/05/27 04:16:19;;;;;;;8.20;2.58;;;11.70;99.90;;;;;;5001215;28;20050;-72
2022/05/27 04:18:44;;;;;;;8.15;2.88;;;11.60;99.90;;;;;;5016072;28;20046;-74
2022/05/27 04:21:10;;;;;;;8.60;2.92;;;11.70;99.90;;;;;;4990505;28;20086;-73
2022/05/27 04:23:37;;;;;;;11.55;3.70;;;11.70;99.90;;;;;;5016954;28;20100;-72
2022/05/27 04:26:04;;;;;;;7.65;3.00;;;11.70;99.90;;;;;;4989485;28;20057;-72
2022/05/27 04:28:29;;;;;;;9.43;3.08;;;11.80;99.90;;;;;;5002646;28;20046;-74
2022/05/27 04:30:55;;;;;;;10.73;3.05;;;11.80;99.90;;;;;;5001664;28;20410;-73
2022/05/27 04:33:21;;;;;;;9.35;3.55;;;11.80;99.90;;;;;;5016914;28;20125;-73
2022/05/27 04:35:47;;;;;;;9.63;3.22;;;11.90;99.90;;;;;;5016306;28;20085;-74
2022/05/27 04:38:13;;;;;;;7.70;3.28;;;11.90;99.90;;;;;;4999031;28;20049;-73
2022/05/27 04:40:39;;;;;;;9.70;3.00;;;12.00;99.90;;;;;;5014475;28;20054;-74
2022/05/27 04:43:05;;;;;;;11.13;2.85;;;12.00;99.90;;;;;;4980581;28;20078;-72
2022/05/27 04:45:31;;;;;;;9.48;2.90;;;12.00;99.90;;;;;;4987630;28;20053;-73
2022/05/27 04:47:57;;;;;;;5.60;2.60;;;12.00;99.90;;;;;;5016076;28;20046;-72
2022/05/27 04:50:23;;;;;;;7.78;2.90;;;12.00;99.90;;;;;;4999590;28;20087;-73
2022/05/27 04:52:50;;;;;;;6.32;3.00;;;12.00;99.90;;;;;;5000644;28;20060;-73
2022/05/27 04:55:17;;;;;;;8.70;2.70;;;12.00;99.90;;;;;;4989293;28;20066;-73
2022/05/27 04:57:53;;;;;;;6.95;2.42;;;12.00;99.90;;;;;;5013490;28;20415;-73
2022/05/27 05:00:37;;;;;;;8.45;3.42;;;12.00;99.90;;;;;;5012498;28;20081;-71
2022/05/27 05:03:03;;;;;;;10.02;3.00;;;12.00;99.90;;;;;;5001249;28;20052;-71
2022/05/27 05:05:31;;;;;;;12.98;3.00;;;12.00;99.90;;;;;;4985870;28;20197;-74
2022/05/27 05:08:03;;;;;;;8.07;3.35;;;12.00;99.90;;;;;;4983879;28;20057;-71
2022/05/27 05:10:30;;;;;;;7.57;2.60;;;12.00;99.90;;;;;;5001404;28;20101;-70
2022/05/27 05:12:56;;;;;;;9.32;2.85;;;12.00;99.90;;;;;;5015980;28;20098;-71
2022/05/27 05:15:24;;;;;;;6.85;2.80;;;12.00;99.90;;;;;;4988259;28;20117;-70
2022/05/27 05:17:50;;;;;;;9.93;3.17;;;12.00;99.90;;;;;;4996397;28;20047;-72
2022/05/27 05:20:19;;;;;;;6.97;2.83;;;12.00;99.90;;;;;;5015362;28;20101;-73
2022/05/27 05:22:45;;;;;;;10.60;2.67;;;12.00;99.90;;;;;;5015505;28;20039;-71
2022/05/27 05:25:11;;;;;;;8.52;2.35;;;12.00;99.90;;;;;;5000867;28;20046;-74
2022/05/27 05:27:39;;;;;;;8.93;2.35;;;12.00;99.90;;;;;;5015574;28;20509;-70
2022/05/27 05:30:07;;;;;;;9.30;2.60;;;12.10;99.90;;;;;;5000714;28;20101;-73
2022/05/27 05:32:33;;;;;;;5.05;2.13;;;12.10;99.90;;;;;;5013382;28;20062;-74
2022/05/27 05:34:59;;;;;;;6.63;1.90;;;12.10;99.90;;;;;;4963801;28;20043;-76
2022/05/27 05:37:26;;;;;;;8.27;2.25;;;12.20;99.90;;;;;;4983333;28;20050;-73
2022/05/27 05:39:52;;;;;;;9.32;2.20;;;12.20;99.90;;;;;;5013588;28;20039;-75
2022/05/27 05:42:18;;;;;;;6.03;1.95;;;12.30;99.90;;;;;;4980118;28;20050;-71
2022/05/27 05:44:44;;;;;;;8.82;2.72;;;12.30;99.90;;;;;;4982673;28;20051;-72
2022/05/27 05:47:09;;;;;;;7.78;2.25;;;12.30;99.90;;;;;;5000037;28;20057;-71
2022/05/27 05:49:35;;;;;;;7.18;2.17;;;12.40;99.90;;;;;;4988935;28;20148;-75
2022/05/27 05:52:02;;;;;;;8.55;2.20;;;12.40;99.90;;;;;;5014138;28;20035;-71
2022/05/27 05:54:29;;;;;;;8.55;2.17;;;12.50;99.90;;;;;;5015762;28;20069;-76
2022/05/27 05:56:58;;;;;;;6.72;1.98;;;12.60;99.90;;;;;;4983508;28;20047;-74
2022/05/27 05:59:27;;;;;;;4.63;1.55;;;12.60;99.90;;;;;;4997283;28;20057;-72
2022/05/27 06:01:53;;;;;;;8.02;2.10;;;12.60;99.90;;;;;;5015298;28;20514;-71
2022/05/27 06:04:19;;;;;;;7.53;2.15;;;12.60;99.90;;;;;;5000185;28;20178;-72
2022/05/27 06:06:44;;;;;;;7.55;1.88;;;12.70;99.90;;;;;;5000505;28;20513;-72
2022/05/27 06:09:10;;;;;;;7.45;1.80;;;12.90;99.90;;;;;;5014553;28;20109;-73
2022/05/27 06:11:38;;;;;;;5.47;2.05;;;13.00;99.90;;;;;;4999141;28;20081;-73
2022/05/27 06:14:05;;;;;;;6.97;2.05;;;13.10;99.90;;;;;;4982566;28;20122;-73
2022/05/27 06:16:31;;;;;;;6.90;2.20;;;13.20;99.90;;;;;;5012729;28;20054;-72
2022/05/27 06:18:57;;;;;;;9.75;2.25;;;13.20;99.90;;;;;;5010889;28;20081;-73
2022/05/27 06:21:22;;;;;;;7.22;2.00;;;13.20;99.90;;;;;;5011340;28;20238;-76
2022/05/27 06:23:48;;;;;;;5.88;1.80;;;13.20;99.90;;;;;;4995508;28;20136;-72
2022/05/27 06:26:14;;;;;;;8.05;2.15;;;13.30;99.90;;;;;;4995458;28;20034;-72
2022/05/27 06:34:23;;;;;;;7.72;2.50;;;13.40;99.90;;;;;;4998383;28;20105;-72
2022/05/27 06:36:56;;;;;;;7.40;1.83;;;13.40;99.90;;;;;;4998440;28;20050;-73
2022/05/27 06:39:23;;;;;;;4.32;1.50;;;13.40;99.90;;;;;;4999190;28;20061;-73
2022/05/27 06:41:50;;;;;;;8.20;1.88;;;13.50;99.90;;;;;;5004339;28;20046;-74
2022/05/27 06:44:17;;;;;;;8.90;1.90;;;13.50;99.90;;;;;;4981405;28;20065;-74
2022/05/27 06:46:43;;;;;;;6.10;1.70;;;13.40;99.90;;;;;;4979015;28;20278;-73
2022/05/27 06:49:08;;;;;;;8.05;1.90;;;13.50;99.90;;;;;;4978725;28;20054;-74
2022/05/27 06:51:36;;;;;;;9.55;2.03;;;13.50;99.90;;;;;;4997673;28;20054;-71
2022/05/27 06:54:03;;;;;;;5.55;2.20;;;13.50;99.90;;;;;;4992488;28;20034;-72
2022/05/27 06:56:29;;;;;;;6.80;2.00;;;13.60;99.90;;;;;;5013596;28;20491;-74
2022/05/27 06:58:54;;;;;;;8.18;1.90;;;13.60;99.90;;;;;;4998285;28;20050;-72
2022/05/27 07:01:20;;;;;;;9.40;1.90;;;13.50;99.90;;;;;;5013653;28;20110;-72
2022/05/27 07:03:46;;;;;;;7.50;1.98;;;13.50;99.90;;;;;;4997185;28;20428;-71
2022/05/27 07:06:13;;;;;;;6.85;2.88;;;13.60;99.90;;;;;;4998504;28;20114;-74
2022/05/27 07:08:38;;;;;;;10.88;2.75;;;13.70;99.90;;;;;;4981448;28;20050;-73
2022/05/27 07:11:05;;;;;;;10.35;1.80;;;13.70;99.90;;;;;;5014854;28;20506;-71
2022/05/27 07:13:31;;;;;;;6.32;2.15;;;13.80;99.90;;;;;;4997779;28;20078;-74
2022/05/27 07:15:57;;;;;;;7.93;1.80;;;13.90;99.90;;;;;;5014575;28;20133;-73
2022/05/27 07:18:23;;;;;;;8.68;1.88;;;14.00;99.90;;;;;;5013565;28;20478;-71
2022/05/27 07:20:49;;;;;;;8.40;1.73;;;13.90;99.90;;;;;;5007982;28;20074;-72
2022/05/27 07:23:17;;;;;;;7.85;2.00;;;13.80;99.90;;;;;;5003225;28;20073;-73
2022/05/27 07:25:44;;;;;;;15.25;3.10;;;13.80;99.90;;;;;;4985079;28;20098;-74
2022/05/27 07:28:11;;;;;;;6.70;2.83;;;13.80;99.90;;;;;;4981934;28;20051;-72
2022/05/27 07:30:37;;;;;;;7.57;2.28;;;13.90;99.90;;;;;;5014263;28;20055;-72
2022/05/27 07:33:03;;;;;;;8.48;1.95;;;13.80;99.90;;;;;;5012647;28;20042;-73
2022/05/27 07:35:29;;;;;;;5.18;1.65;;;13.70;99.90;;;;;;5010560;28;20046;-76
2022/05/27 07:37:55;;;;;;;8.82;1.92;;;13.70;99.90;;;;;;5015523;28;20045;-72
2022/05/27 07:40:21;;;;;;;8.75;1.98;;;13.80;99.90;;;;;;5001928;28;20070;-74
2022/05/27 07:42:48;;;;;;;6.65;1.90;;;13.80;99.90;;;;;;5013456;28;20045;-73
2022/05/27 07:45:16;;;;;;;6.60;1.92;;;13.70;99.90;;;;;;5014562;28;20653;-71
2022/05/27 07:47:42;;;;;;;9.85;2.17;;;13.60;99.90;;;;;;4990153;28;20054;-73
2022/05/27 07:50:11;;;;;;;6.03;1.65;;;13.70;99.90;;;;;;4993495;28;20046;-70
2022/05/27 07:52:37;;;;;;;6.43;1.80;;;13.90;99.90;;;;;;4996912;28;20050;-76
2022/05/27 07:55:04;;;;;;;16.45;1.95;;;14.10;99.90;;;;;;4998791;28;20057;-73
2022/05/27 07:57:30;;;;;;;8.70;1.70;;;14.10;99.90;;;;;;4986738;28;20093;-72
2022/05/27 07:59:55;;;;;;;7.38;2.00;;;14.00;99.90;;;;;;5001416;28;20054;-72
2022/05/27 08:02:22;;;;;;;7.47;2.22;;;13.90;99.90;;;;;;4993200;28;20058;-74
2022/05/27 08:04:48;;;;;;;5.68;1.70;;;14.00;99.90;;;;;;4981917;28;20556;-74
2022/05/27 08:07:14;;;;;;;8.65;2.03;;;14.10;99.90;;;;;;4990478;28;20101;-74
2022/05/27 08:09:40;;;;;;;7.80;2.00;;;14.50;99.90;;;;;;5001590;28;20053;-73
2022/05/27 08:12:06;;;;;;;7.25;1.90;;;14.30;99.90;;;;;;5011957;28;20066;-74
2022/05/27 08:14:32;;;;;;;6.97;1.65;;;14.50;99.90;;;;;;4980636;28;20339;-74
2022/05/27 08:16:59;;;;;;;5.20;1.80;;;14.50;99.90;;;;;;4980831;28;20050;-72
2022/05/27 08:19:24;;;;;;;5.50;1.70;;;14.50;99.90;;;;;;4996513;28;20134;-73
2022/05/27 08:21:50;;;;;;;5.55;1.90;;;14.60;99.90;;;;;;5012722;28;20070;-73
2022/05/27 08:24:16;;;;;;;8.80;1.90;;;14.60;99.90;;;;;;5012987;28;20061;-74
2022/05/27 08:26:43;;;;;;;8.63;2.55;;;14.60;99.90;;;;;;4984491;28;20571;-73
2022/05/27 08:29:10;;;;;;;5.90;2.10;;;14.50;99.90;;;;;;4988015;28;20074;-75
2022/05/27 08:31:37;;;;;;;7.47;1.77;;;14.60;99.90;;;;;;5013538;28;20070;-76
2022/05/27 08:39:38;;;;;;;4.70;1.75;;;14.70;99.90;;;;;;4979787;28;20049;-75
2022/05/27 08:42:29;;;;;;;6.55;1.52;;;14.60;99.90;;;;;;4987214;28;20045;-74
2022/05/27 08:45:13;;;;;;;4.53;1.65;;;14.30;99.90;;;;;;4978204;28;20515;-74
2022/05/27 08:47:45;;;;;;;5.75;1.77;;;14.10;99.90;;;;;;4993363;28;20054;-75
2022/05/27 08:50:26;;;;;;;6.82;1.60;;;14.10;99.90;;;;;;4977091;28;20165;-76
2022/05/27 08:53:07;;;;;;;4.57;1.58;;;14.30;99.90;;;;;;4993055;28;20051;-73
2022/05/27 09:01:29;;;;;;;5.55;1.58;;;14.70;99.90;;;;;;4977148;28;20114;-76
2022/05/27 09:04:26;;;;;;;5.35;1.42;;;14.80;99.90;;;;;;4992867;28;20055;-76
2022/05/27 09:07:06;;;;;;;5.63;1.40;;;14.60;99.90;;;;;;4995911;28;20062;-72
2022/05/27 09:09:32;;;;;;;4.07;1.00;;;14.30;99.90;;;;;;4980172;28;20474;-77
2022/05/27 09:12:29;;;;;;;6.65;1.75;;;14.30;99.90;;;;;;4979549;28;20691;-75
2022/05/27 09:15:04;;;;;;;4.32;1.20;;;14.40;99.90;;;;;;4970715;28;20510;-75
2022/05/27 09:17:42;;;;;;;7.77;1.70;;;14.50;99.90;;;;;;4979660;28;20062;-74
2022/05/27 09:20:16;;;;;;;7.00;1.65;;;14.60;99.90;;;;;;4996034;28;20047;-75
2022/05/27 09:22:42;;;;;;;8.90;1.67;;;14.70;99.90;;;;;;4995709;28;20047;-74
2022/05/27 09:25:15;;;;;;;4.60;1.42;;;14.80;99.90;;;;;;4979663;28;20061;-75
2022/05/27 09:27:59;;;;;;;4.93;1.38;;;14.80;99.90;;;;;;4979907;28;20059;-76
2022/05/27 09:30:26;;;;;;;6.07;1.50;;;14.80;99.90;;;;;;4979583;28;20054;-72
2022/05/27 09:32:54;;;;;;;5.47;1.42;;;14.70;99.90;;;;;;4979997;28;20074;-72
2022/05/27 09:35:36;;;;;;;9.15;1.33;;;14.80;99.90;;;;;;4995189;28;20054;-73
2022/05/27 09:38:04;;;;;;;5.35;1.45;;;14.60;99.90;;;;;;4980223;28;20051;-73
2022/05/27 09:40:48;;;;;;;6.25;1.48;;;14.60;99.90;;;;;;4979525;28;20266;-74
2022/05/27 09:43:29;;;;;;;7.55;1.42;;;14.70;99.90;;;;;;4965710;28;20051;-75
2022/05/27 09:46:07;;;;;;;5.22;1.48;;;14.70;99.90;;;;;;4963692;28;20050;-74
2022/05/27 09:48:33;;;;;;;6.82;1.52;;;14.80;99.90;;;;;;4978734;28;20552;-75
2022/05/27 09:51:03;;;;;;;5.28;1.58;;;14.80;99.90;;;;;;4962973;28;20070;-76
2022/05/27 09:53:33;;;;;;;7.95;1.60;;;14.90;99.90;;;;;;4979713;28;20054;-74
2022/05/27 09:56:05;;;;;;;5.38;1.55;;;14.90;99.90;;;;;;4978882;28;20050;-72
2022/05/27 09:58:34;;;;;;;3.80;1.17;;;14.70;99.90;;;;;;4979990;28;20051;-73
2022/05/27 10:01:38;;;;;;;4.60;1.30;;;14.50;99.90;;;;;;4979034;28;20074;-74
2022/05/27 10:04:12;;;;;;;4.47;1.60;;;14.50;99.90;;;;;;4977631;28;20058;-74
2022/05/27 10:06:38;;;;;;;7.95;2.10;;;14.50;99.90;;;;;;4976478;28;20067;-72
2022/05/27 10:09:28;;;;;;;5.72;1.17;;;14.60;99.90;;;;;;4979065;28;20058;-76
2022/05/27 10:11:58;;;;;;;6.20;2.03;;;14.80;99.90;;;;;;4978812;28;20059;-76
2022/05/27 10:14:32;;;;;;;5.38;1.20;;;14.70;99.90;;;;;;4978607;28;20039;-74
2022/05/27 10:17:01;;;;;;;5.00;1.50;;;14.60;99.90;;;;;;4979061;28;20138;-71
2022/05/27 10:19:27;;;;;;;7.00;1.52;;;14.70;99.90;;;;;;4995269;28;20113;-73
2022/05/27 10:21:57;;;;;;;3.92;1.17;;;14.90;99.90;;;;;;4978622;28;20121;-73
2022/05/27 10:24:27;;;;;;;7.38;1.58;;;15.00;99.90;;;;;;4980522;28;20047;-74
2022/05/27 10:27:26;;;;;;;4.05;1.20;;;14.80;99.90;;;;;;4978127;28;20232;-79
2022/05/27 10:29:55;;;;;;;6.95;1.75;;;14.80;99.90;;;;;;4971089;28;20147;-76
2022/05/27 10:32:47;;;;;;;3.80;1.13;;;14.70;99.90;;;;;;4979418;28;20054;-75
2022/05/27 10:35:16;;;;;;;4.43;1.42;;;14.90;99.90;;;;;;4979562;28;20074;-74
2022/05/27 10:38:09;;;;;;;4.70;1.40;;;15.00;99.90;;;;;;4980381;28;20160;-75
2022/05/27 10:40:40;;;;;;;6.68;1.50;;;15.00;99.90;;;;;;4979086;28;20043;-71
2022/05/27 10:43:29;;;;;;;5.13;1.50;;;15.00;99.90;;;;;;4978309;28;20106;-73
2022/05/27 10:45:56;;;;;;;4.57;1.60;;;15.10;99.90;;;;;;4995486;28;20046;-76
2022/05/27 10:49:18;;;;;;;5.40;1.83;;;14.80;99.90;;;;;;4978421;28;20055;-75
2022/05/27 10:51:49;;;;;;;4.90;1.30;;;14.60;99.90;;;;;;4977449;28;20150;-76
2022/05/27 10:54:53;;;;;;;3.85;1.30;;;14.60;99.90;;;;;;4962700;28;20096;-75
2022/05/27 11:02:53;;;;;;;5.28;1.10;;;15.00;99.90;;;;;;4977525;28;20114;-74
2022/05/27 11:05:57;;;;;;;5.18;1.33;;;15.20;99.90;;;;;;4998116;28;20122;-74
2022/05/27 11:08:28;;;;;;;6.28;2.00;;;15.30;99.90;;;;;;4995727;28;20113;-75
2022/05/27 11:11:26;;;;;;;9.27;1.73;;;15.30;99.90;;;;;;5015763;28;20078;-77
2022/05/27 11:17:26;;;;;;;5.72;1.38;;;15.20;99.90;;;;;;4982105;28;20058;-74
2022/05/27 11:20:06;;;;;;;6.50;1.98;;;15.30;99.90;;;;;;5014905;28;20912;-76
2022/05/27 11:22:37;;;;;;;4.72;1.10;;;15.30;99.90;;;;;;5014782;28;20075;-76
2022/05/27 11:25:27;;;;;;;5.20;1.70;;;15.30;99.90;;;;;;5014495;28;20908;-78
2022/05/27 11:28:21;;;;;;;8.52;1.48;;;15.30;99.90;;;;;;4983462;28;20054;-75
2022/05/27 11:31:11;;;;;;;7.38;1.50;;;15.30;99.90;;;;;;4983326;28;20054;-74
2022/05/27 11:34:02;;;;;;;4.68;1.33;;;15.20;99.90;;;;;;5015413;28;20134;-77
2022/05/27 11:36:38;;;;;;;5.10;1.50;;;15.80;99.90;;;;;;4998329;28;20137;-75
2022/05/27 11:39:55;;;;;;;5.28;1.20;;;15.30;99.90;;;;;;5014548;28;20074;-74
2022/05/27 11:42:44;;;;;;;4.47;1.48;;;15.30;99.90;;;;;;4977553;28;20065;-74
2022/05/27 11:45:23;;;;;;;6.10;1.52;;;15.40;99.90;;;;;;5002724;28;20086;-73
2022/05/27 11:47:59;;;;;;;7.00;1.48;;;15.30;99.90;;;;;;4997209;28;20054;-74
2022/05/27 11:50:42;;;;;;;6.35;1.10;;;15.10;99.90;;;;;;4962860;28;20079;-75
2022/05/27 11:53:27;;;;;;;4.45;1.60;;;15.40;99.90;;;;;;4954496;28;20115;-71
2022/05/27 11:56:03;;;;;;;5.57;1.45;;;15.60;99.90;;;;;;4997380;28;20152;-76
2022/05/27 11:58:38;;;;;;;7.93;2.00;;;15.70;99.90;;;;;;4997734;28;20077;-74
2022/05/27 12:01:11;;;;;;;7.53;1.67;;;15.60;99.90;;;;;;4997051;28;20058;-76
2022/05/27 12:04:18;;;;;;;5.80;1.55;;;15.60;99.90;;;;;;4983181;28;20039;-73
2022/05/27 12:06:48;;;;;;;6.75;1.42;;;15.70;99.90;;;;;;4965382;28;20062;-76
2022/05/27 12:09:41;;;;;;;5.18;1.70;;;15.70;99.90;;;;;;4981018;28;20061;-74
2022/05/27 12:12:10;;;;;;;5.75;1.50;;;15.50;99.90;;;;;;4981128;28;20069;-72
2022/05/27 12:14:52;;;;;;;5.60;1.10;;;15.40;99.90;;;;;;4981067;28;20059;-73
2022/05/27 12:17:22;;;;;;;6.15;1.20;;;15.40;99.90;;;;;;4979883;28;20057;-75
2022/05/27 12:20:07;;;;;;;3.92;1.08;;;15.60;99.90;;;;;;4980693;28;20062;-75
2022/05/27 12:22:35;;;;;;;4.03;1.08;;;15.60;99.90;;;;;;4963149;28;20108;-73
2022/05/27 12:25:20;;;;;;;6.68;1.50;;;15.30;99.90;;;;;;4980997;28;20042;-77
2022/05/27 12:27:48;;;;;;;5.30;1.80;;;15.20;99.90;;;;;;4977930;28;20038;-73
2022/05/27 12:30:17;;;;;;;5.78;1.10;;;15.20;99.90;;;;;;4980119;28;20047;-75
2022/05/27 12:32:46;;;;;;;3.67;1.00;;;15.00;99.90;;;;;;4965532;28;20686;-73
2022/05/27 12:35:43;;;;;;;7.22;1.63;;;14.80;99.90;;;;;;4980208;28;20043;-75
2022/05/27 12:38:36;;;;;;;5.45;1.48;;;14.70;99.90;;;;;;4965048;28;20046;-73
2022/05/27 12:41:07;;;;;;;4.53;1.48;;;14.50;99.90;;;;;;5012602;28;20054;-72
2022/05/27 12:43:39;;;;;;;6.45;1.48;;;14.60;99.90;;;;;;4979972;28;20063;-73
2022/05/27 12:46:04;;;;;;;5.95;1.27;;;14.70;99.90;;;;;;4981223;28;20047;-76
2022/05/27 12:48:36;;;;;;;5.32;1.58;;;15.00;99.90;;;;;;4997009;28;20101;-74
2022/05/27 12:51:04;;;;;;;3.33;1.60;;;15.20;99.90;;;;;;4996272;28;20448;-74
2022/05/27 12:53:46;;;;;;;7.35;1.75;;;15.40;99.90;;;;;;4997274;28;20046;-74
2022/05/27 13:02:44;;;;;;;7.95;1.60;;;15.00;99.90;;;;;;4985494;28;20110;-75
2022/05/27 13:05:14;;;;;;;5.15;1.50;;;14.60;99.90;;;;;;4979572;28;20055;-74
2022/05/27 13:07:40;;;;;;;5.43;1.30;;;14.60;99.90;;;;;;4980626;28;20073;-73
2022/05/27 13:10:18;;;;;;;6.75;1.30;;;14.50;99.90;;;;;;4980108;28;20492;-73
2022/05/27 13:12:47;;;;;;;6.13;1.70;;;14.50;99.90;;;;;;4979821;28;20054;-75
2022/05/27 13:15:31;;;;;;;5.63;1.63;;;14.30;99.90;;;;;;4980354;28;20054;-76
2022/05/27 13:18:18;;;;;;;5.43;1.58;;;14.20;99.90;;;;;;4979544;28;20054;-74
2022/05/27 13:21:03;;;;;;;5.32;1.73;;;14.30;99.90;;;;;;4979400;28;20081;-77
2022/05/27 13:23:31;;;;;;;5.95;1.48;;;14.30;99.90;;;;;;4980733;28;20046;-74
2022/05/27 13:26:18;;;;;;;5.80;1.52;;;14.30;99.90;;;;;;4979263;28;20055;-74
2022/05/27 13:29:15;;;;;;;4.30;1.60;;;14.50;99.90;;;;;;4979825;28;20133;-74
2022/05/27 13:31:44;;;;;;;6.82;1.35;;;14.90;99.90;;;;;;4981518;28;20106;-72
2022/05/27 13:34:19;;;;;;;5.35;1.88;;;15.00;99.90;;;;;;4995789;28;20127;-74
2022/05/27 13:37:02;;;;;;;5.35;1.73;;;15.00;99.90;;;;;;4980445;28;20198;-73
2022/05/27 13:39:35;;;;;;;5.45;1.95;;;15.00;99.90;;;;;;4995656;28;20046;-79
2022/05/27 13:42:01;;;;;;;4.30;1.15;;;15.10;99.90;;;;;;4963506;28;20066;-76
2022/05/27 13:44:27;;;;;;;4.82;1.30;;;15.00;99.90;;;;;;4979955;28;20062;-74
2022/05/27 13:46:56;;;;;;;5.30;1.45;;;14.90;99.90;;;;;;4979578;28;20069;-76
2022/05/27 13:49:41;;;;;;;5.60;1.13;;;14.90;99.90;;;;;;4979205;28;20102;-73
2022/05/27 13:52:24;;;;;;;6.45;1.45;;;15.10;99.90;;;;;;4995391;28;20078;-74
2022/05/27 13:55:09;;;;;;;5.18;1.50;;;15.30;99.90;;;;;;4979438;28;20054;-72
2022/05/27 13:57:36;;;;;;;6.25;1.58;;;15.20;99.90;;;;;;4963074;28;20086;-74